Time;durP1;ratioP1;P1;durP2;ratioP2;P2;SDS_P1;SDS_P2;PMS_P1;PMS_P2;Temp;Humidity;BMP_temperature;BMP_pressure;BME280_temperature;BME280_humidity;BME280_pressure;Samples;Min_cycle;Max_cycle;Signal;HPM_P1;HPM_P2
2024/02/19 00:00:09;;;;;;;34.45;5.07;;;;;;;;;;4992532;28;20042;-78
2024/02/19 00:02:36;;;;;;;31.88;4.95;;;;;;;;;;4992555;28;20077;-78
2024/02/19 00:05:04;;;;;;;31.65;5.05;;;;;;;;;;4992914;28;20271;-77
2024/02/19 00:07:31;;;;;;;45.47;4.63;;;;;;;;;;4991593;28;20047;-78
2024/02/19 00:09:58;;;;;;;44.53;4.97;;;;;;;;;;4992408;28;20045;-78
2024/02/19 00:12:25;;;;;;;32.88;4.03;;;;;;;;;;4991931;28;20049;-78
2024/02/19 00:14:52;;;;;;;32.97;4.75;;;;;;;;;;4992274;28;20042;-78
2024/02/19 00:17:19;;;;;;;32.38;4.50;;;;;;;;;;4992013;28;20047;-80
2024/02/19 00:19:45;;;;;;;32.78;4.75;;;;;;;;;;4992106;28;20046;-79
2024/02/19 00:22:12;;;;;;;37.10;4.47;;;;;;;;;;4991928;28;20425;-80
2024/02/19 00:24:39;;;;;;;31.20;4.22;;;;;;;;;;4991958;28;20188;-77
2024/02/19 00:27:07;;;;;;;29.08;4.10;;;;;;;;;;4991906;28;20046;-78
2024/02/19 00:29:33;;;;;;;24.83;4.63;;;;;;;;;;4991992;28;20043;-78
2024/02/19 00:32:00;;;;;;;37.85;6.00;;;;;;;;;;4992289;28;20096;-79
2024/02/19 00:34:27;;;;;;;27.08;4.72;;;;;;;;;;4991440;28;20393;-79
2024/02/19 00:36:54;;;;;;;37.08;4.72;;;;;;;;;;4992082;28;20065;-79
2024/02/19 00:39:21;;;;;;;28.38;4.32;;;;;;;;;;4991490;28;20052;-79
2024/02/19 00:41:48;;;;;;;27.83;5.22;;;;;;;;;;4991849;28;20049;-78
2024/02/19 00:44:14;;;;;;;30.58;5.50;;;;;;;;;;4991481;28;20053;-79
2024/02/19 00:46:41;;;;;;;31.27;5.10;;;;;;;;;;4991807;28;20455;-79
2024/02/19 00:49:08;;;;;;;27.20;5.07;;;;;;;;;;4991511;28;20061;-79
2024/02/19 00:51:35;;;;;;;31.10;4.13;;;;;;;;;;4991560;28;20069;-78
2024/02/19 00:54:02;;;;;;;43.97;5.20;;;;;;;;;;4992132;28;20039;-78
2024/02/19 00:56:28;;;;;;;33.70;5.03;;;;;;;;;;4991119;28;20060;-79
2024/02/19 00:58:55;;;;;;;29.42;4.47;;;;;;;;;;4991867;28;20046;-78
2024/02/19 01:01:22;;;;;;;36.15;4.25;;;;;;;;;;4991460;28;20474;-79
2024/02/19 01:03:49;;;;;;;29.63;4.07;;;;;;;;;;4991836;28;20050;-78
2024/02/19 01:06:16;;;;;;;29.38;3.75;;;;;;;;;;4973916;28;20088;-79
2024/02/19 01:08:42;;;;;;;28.92;4.85;;;;;;;;;;4991439;28;20137;-79
2024/02/19 01:11:10;;;;;;;20.83;4.28;;;;;;;;;;4991403;28;20042;-78
2024/02/19 01:13:39;;;;;;;28.17;3.92;;;;;;;;;;4991465;28;20050;-79
2024/02/19 01:16:07;;;;;;;;;;;;;;;;;;4991926;28;20046;-79
2024/02/19 01:18:35;;;;;;;30.00;3.58;;;;;;;;;;4992175;28;19922;-77
2024/02/19 01:21:03;;;;;;;27.33;4.07;;;;;;;;;;4994433;28;20089;-77
2024/02/19 01:23:30;;;;;;;29.33;3.90;;;;;;;;;;4993971;28;20377;-78
2024/02/19 01:25:57;;;;;;;31.08;4.72;;;;;;;;;;4995551;28;20129;-77
2024/02/19 01:28:24;;;;;;;31.27;4.53;;;;;;;;;;4994852;28;20062;-78
2024/02/19 01:30:51;;;;;;;26.38;3.22;;;;;;;;;;4995349;28;20072;-77
2024/02/19 01:33:19;;;;;;;28.42;3.67;;;;;;;;;;4994947;28;20385;-78
2024/02/19 01:35:46;;;;;;;23.35;3.70;;;;;;;;;;4995368;28;20455;-77
2024/02/19 01:38:13;;;;;;;32.25;4.95;;;;;;;;;;4994870;28;20486;-78
2024/02/19 01:40:40;;;;;;;30.38;3.67;;;;;;;;;;4995107;28;20045;-77
2024/02/19 01:43:07;;;;;;;26.48;4.18;;;;;;;;;;4994778;28;20046;-78
2024/02/19 01:45:34;;;;;;;25.60;4.00;;;;;;;;;;4994909;28;20050;-77
2024/02/19 01:48:01;;;;;;;30.40;3.40;;;;;;;;;;4995221;28;20409;-79
2024/02/19 01:50:31;;;;;;;24.00;3.45;;;;;;;;;;4994523;28;20063;-78
2024/02/19 01:53:00;;;;;;;33.22;3.65;;;;;;;;;;4995162;28;20046;-77
2024/02/19 01:55:28;;;;;;;24.70;3.13;;;;;;;;;;4994234;28;20492;-77
2024/02/19 01:57:55;;;;;;;28.13;4.28;;;;;;;;;;4994925;28;20050;-78
2024/02/19 02:00:22;;;;;;;27.58;3.33;;;;;;;;;;4994313;28;20415;-77
2024/02/19 02:02:49;;;;;;;28.17;3.88;;;;;;;;;;4994843;28;20096;-79
2024/02/19 02:05:16;;;;;;;40.90;4.40;;;;;;;;;;4994255;28;20046;-78
2024/02/19 02:07:44;;;;;;;28.85;3.58;;;;;;;;;;4994312;28;20430;-78
2024/02/19 02:10:10;;;;;;;28.75;4.43;;;;;;;;;;4993971;28;20034;-77
2024/02/19 02:12:37;;;;;;;36.83;4.25;;;;;;;;;;4994714;28;20042;-78
2024/02/19 02:15:05;;;;;;;23.75;4.10;;;;;;;;;;4995108;28;20136;-78
2024/02/19 02:17:32;;;;;;;29.38;3.60;;;;;;;;;;4994227;28;20046;-78
2024/02/19 02:19:59;;;;;;;26.00;3.83;;;;;;;;;;4994716;28;20408;-77
2024/02/19 02:22:26;;;;;;;28.65;3.92;;;;;;;;;;4994158;28;20042;-80
2024/02/19 02:24:53;;;;;;;28.67;3.78;;;;;;;;;;4994263;28;20398;-80
2024/02/19 02:27:20;;;;;;;22.45;3.38;;;;;;;;;;4993853;28;20038;-78
2024/02/19 02:29:47;;;;;;;21.85;3.83;;;;;;;;;;4993633;28;20474;-76
2024/02/19 02:32:13;;;;;;;27.52;4.30;;;;;;;;;;4993268;28;20053;-78
2024/02/19 02:34:40;;;;;;;30.25;3.83;;;;;;;;;;4994101;28;20046;-78
2024/02/19 02:37:07;;;;;;;18.88;2.80;;;;;;;;;;4994159;28;20085;-78
2024/02/19 02:39:34;;;;;;;31.58;3.88;;;;;;;;;;4993837;28;20038;-78
2024/02/19 02:42:01;;;;;;;29.40;4.22;;;;;;;;;;4994243;28;20496;-77
2024/02/19 02:44:28;;;;;;;22.73;3.70;;;;;;;;;;4993435;28;20050;-78
2024/02/19 02:46:55;;;;;;;28.13;3.50;;;;;;;;;;5004124;28;20381;-77
2024/02/19 02:49:21;;;;;;;25.23;4.00;;;;;;;;;;4993738;28;20043;-77
2024/02/19 02:51:48;;;;;;;28.05;3.88;;;;;;;;;;4992593;28;20489;-77
2024/02/19 02:54:15;;;;;;;20.13;4.00;;;;;;;;;;4993586;28;20389;-78
2024/02/19 02:56:42;;;;;;;26.90;3.83;;;;;;;;;;4993859;28;20042;-78
2024/02/19 02:59:09;;;;;;;34.00;4.55;;;;;;;;;;4993784;28;20517;-78
2024/02/19 03:01:36;;;;;;;26.58;4.05;;;;;;;;;;4993631;28;20477;-78
2024/02/19 03:04:03;;;;;;;29.33;3.95;;;;;;;;;;4994093;28;20434;-79
2024/02/19 03:06:30;;;;;;;27.35;3.45;;;;;;;;;;4993371;28;20049;-78
2024/02/19 03:08:57;;;;;;;26.60;3.78;;;;;;;;;;4993434;28;20042;-79
2024/02/19 03:11:23;;;;;;;28.80;4.35;;;;;;;;;;4993271;28;20053;-78
2024/02/19 03:13:50;;;;;;;20.65;3.20;;;;;;;;;;4993674;28;20046;-78
2024/02/19 03:16:17;;;;;;;27.45;3.33;;;;;;;;;;4993149;28;20129;-78
2024/02/19 03:18:45;;;;;;;22.02;3.83;;;;;;;;;;4993443;28;20099;-78
2024/02/19 03:21:15;;;;;;;24.48;4.43;;;;;;;;;;4993119;28;20062;-79
2024/02/19 03:23:51;;;;;;;16.63;2.92;;;;;;;;;;4993312;28;20065;-78
2024/02/19 03:26:24;;;;;;;24.88;4.13;;;;;;;;;;4992705;28;20042;-79
2024/02/19 03:29:11;;;;;;;20.05;3.15;;;;;;;;;;4992754;28;20046;-77
2024/02/19 03:31:40;;;;;;;24.58;3.28;;;;;;;;;;4992949;28;20529;-78
2024/02/19 03:34:07;;;;;;;21.40;2.95;;;;;;;;;;4992793;28;20038;-79
2024/02/19 03:36:34;;;;;;;34.17;4.20;;;;;;;;;;4992937;28;20046;-78
2024/02/19 03:39:01;;;;;;;23.88;3.75;;;;;;;;;;4993199;28;20105;-78
2024/02/19 03:41:27;;;;;;;16.15;2.97;;;;;;;;;;4992380;28;20050;-79
2024/02/19 03:43:54;;;;;;;35.47;3.70;;;;;;;;;;4993088;28;20042;-78
2024/02/19 03:46:21;;;;;;;27.20;4.32;;;;;;;;;;4992245;28;20355;-79
2024/02/19 03:48:48;;;;;;;20.85;3.13;;;;;;;;;;4992724;28;20054;-78
2024/02/19 03:51:14;;;;;;;22.90;3.25;;;;;;;;;;4992321;28;20038;-79
2024/02/19 03:53:41;;;;;;;23.63;3.25;;;;;;;;;;4992767;28;20052;-78
2024/02/19 03:56:08;;;;;;;26.98;3.75;;;;;;;;;;4992419;28;20038;-77
2024/02/19 03:58:35;;;;;;;25.83;3.67;;;;;;;;;;4992604;28;20397;-78
2024/02/19 04:01:02;;;;;;;24.88;3.10;;;;;;;;;;4992846;28;20038;-78
2024/02/19 04:03:33;;;;;;;25.17;3.15;;;;;;;;;;4991935;28;20046;-78
2024/02/19 04:06:01;;;;;;;27.50;3.63;;;;;;;;;;4992570;28;20496;-78
2024/02/19 04:08:27;;;;;;;16.27;3.13;;;;;;;;;;4974412;28;20046;-78
2024/02/19 04:10:54;;;;;;;25.45;3.33;;;;;;;;;;4992440;28;20046;-78
2024/02/19 04:13:21;;;;;;;30.75;3.28;;;;;;;;;;4992046;28;20120;-78
2024/02/19 04:15:47;;;;;;;27.60;3.40;;;;;;;;;;4992089;28;20034;-77
2024/02/19 04:18:14;;;;;;;22.30;3.17;;;;;;;;;;4991894;28;20494;-78
2024/02/19 04:20:41;;;;;;;21.33;3.08;;;;;;;;;;4992169;28;20047;-78
2024/02/19 04:23:08;;;;;;;25.23;2.45;;;;;;;;;;4991899;28;20035;-78
2024/02/19 04:25:34;;;;;;;17.23;2.80;;;;;;;;;;4991862;28;20042;-78
2024/02/19 04:28:01;;;;;;;22.55;3.33;;;;;;;;;;4975231;28;20521;-78
2024/02/19 04:30:29;;;;;;;17.55;2.70;;;;;;;;;;4991655;28;20092;-79
2024/02/19 04:32:56;;;;;;;16.98;3.35;;;;;;;;;;4992273;28;20083;-79
2024/02/19 04:35:22;;;;;;;20.20;2.78;;;;;;;;;;4991489;28;20043;-78
2024/02/19 04:37:49;;;;;;;24.55;3.63;;;;;;;;;;4991971;28;20046;-77
2024/02/19 04:40:16;;;;;;;23.63;2.60;;;;;;;;;;4991527;28;20045;-79
2024/02/19 04:42:43;;;;;;;20.33;3.58;;;;;;;;;;4991890;28;20046;-78
2024/02/19 04:45:09;;;;;;;18.60;2.85;;;;;;;;;;4991538;28;20046;-78
2024/02/19 04:47:36;;;;;;;20.27;3.05;;;;;;;;;;4992158;28;20104;-78
2024/02/19 04:50:03;;;;;;;25.02;3.05;;;;;;;;;;4992110;28;20482;-78
2024/02/19 04:52:30;;;;;;;26.15;3.88;;;;;;;;;;4991692;28;20050;-78
2024/02/19 04:54:57;;;;;;;18.58;2.70;;;;;;;;;;4997621;28;20045;-78
2024/02/19 04:57:24;;;;;;;15.93;2.95;;;;;;;;;;4997758;28;20401;-79
2024/02/19 04:59:50;;;;;;;18.15;2.67;;;;;;;;;;4998451;28;20552;-78
2024/02/19 05:02:17;;;;;;;21.75;2.90;;;;;;;;;;4997772;28;20593;-77
2024/02/19 05:04:44;;;;;;;25.33;3.38;;;;;;;;;;4998181;28;20047;-79
2024/02/19 05:07:11;;;;;;;18.50;2.92;;;;;;;;;;4997910;28;20053;-79
2024/02/19 05:09:38;;;;;;;20.75;3.13;;;;;;;;;;4997890;28;20432;-78
2024/02/19 05:12:05;;;;;;;18.83;2.90;;;;;;;;;;4998103;28;20108;-78
2024/02/19 05:14:32;;;;;;;28.42;3.40;;;;;;;;;;4998188;28;20053;-79
2024/02/19 05:17:00;;;;;;;20.08;3.05;;;;;;;;;;4998641;28;20100;-79
2024/02/19 05:19:28;;;;;;;23.52;4.10;;;;;;;;;;4997773;28;20038;-79
2024/02/19 05:21:55;;;;;;;16.83;2.72;;;;;;;;;;4998371;28;20038;-79
2024/02/19 05:24:22;;;;;;;20.90;3.53;;;;;;;;;;4997529;28;20474;-78
2024/02/19 05:26:49;;;;;;;23.30;3.58;;;;;;;;;;4998207;28;20371;-78
2024/02/19 05:29:15;;;;;;;20.55;3.50;;;;;;;;;;4997811;28;20057;-78
2024/02/19 05:31:42;;;;;;;23.38;4.00;;;;;;;;;;4997836;28;20053;-78
2024/02/19 05:34:09;;;;;;;30.77;4.57;;;;;;;;;;4997736;28;20038;-84
2024/02/19 05:36:36;;;;;;;21.17;3.45;;;;;;;;;;4966174;28;20050;-79
2024/02/19 05:39:03;;;;;;;21.67;3.60;;;;;;;;;;4999488;28;20038;-79
2024/02/19 05:41:29;;;;;;;21.15;3.78;;;;;;;;;;4999256;28;20069;-79
2024/02/19 05:43:56;;;;;;;22.83;2.75;;;;;;;;;;4999002;28;20386;-78
2024/02/19 05:46:23;;;;;;;16.70;3.22;;;;;;;;;;4998149;28;20053;-78
2024/02/19 05:48:50;;;;;;;25.58;3.65;;;;;;;;;;4998692;28;20441;-79
2024/02/19 05:51:17;;;;;;;19.55;3.50;;;;;;;;;;4997955;28;20093;-79
2024/02/19 05:53:44;;;;;;;22.10;3.47;;;;;;;;;;4998668;28;20041;-79
2024/02/19 05:56:11;;;;;;;25.08;3.65;;;;;;;;;;4997905;28;20061;-78
2024/02/19 05:58:40;;;;;;;26.85;3.30;;;;;;;;;;4998988;28;20363;-78
2024/02/19 06:01:07;;;;;;;22.33;4.03;;;;;;;;;;4998422;28;20470;-79
2024/02/19 06:03:35;;;;;;;18.75;2.70;;;;;;;;;;4999108;28;20042;-78
2024/02/19 06:06:03;;;;;;;29.23;3.75;;;;;;;;;;4995885;28;20038;-79
2024/02/19 06:08:30;;;;;;;18.88;3.47;;;;;;;;;;4995009;28;20459;-78
2024/02/19 06:10:58;;;;;;;14.45;2.90;;;;;;;;;;4995722;28;20049;-79
2024/02/19 06:13:25;;;;;;;17.25;3.25;;;;;;;;;;4994956;28;20470;-79
2024/02/19 06:15:52;;;;;;;15.93;2.58;;;;;;;;;;4995307;28;20046;-79
2024/02/19 06:18:19;;;;;;;20.33;2.88;;;;;;;;;;4995484;28;20042;-79
2024/02/19 06:20:47;;;;;;;21.63;3.00;;;;;;;;;;4990403;28;20057;-78
2024/02/19 06:23:14;;;;;;;24.42;3.67;;;;;;;;;;4995074;28;20058;-78
2024/02/19 06:25:43;;;;;;;25.70;3.10;;;;;;;;;;4993416;28;20045;-79
2024/02/19 06:28:10;;;;;;;22.00;3.60;;;;;;;;;;4993468;28;20054;-79
2024/02/19 06:30:37;;;;;;;17.50;3.17;;;;;;;;;;4993722;28;20125;-79
2024/02/19 06:33:04;;;;;;;20.63;2.92;;;;;;;;;;4993642;28;20073;-79
2024/02/19 06:35:31;;;;;;;18.15;2.50;;;;;;;;;;4993923;28;20046;-79
2024/02/19 06:37:58;;;;;;;20.30;3.25;;;;;;;;;;4994241;28;20050;-79
2024/02/19 06:40:26;;;;;;;25.35;3.42;;;;;;;;;;4993550;28;20494;-79
2024/02/19 06:42:53;;;;;;;19.48;3.20;;;;;;;;;;4995664;28;20046;-78
2024/02/19 06:45:21;;;;;;;20.40;4.00;;;;;;;;;;4995084;28;20444;-78
2024/02/19 06:47:48;;;;;;;29.90;3.17;;;;;;;;;;4995695;28;20074;-78
2024/02/19 06:50:15;;;;;;;18.67;2.70;;;;;;;;;;4994653;28;20494;-78
2024/02/19 06:52:45;;;;;;;21.02;3.15;;;;;;;;;;4995609;28;20042;-78
2024/02/19 06:55:14;;;;;;;20.27;2.58;;;;;;;;;;4994504;28;20042;-79
2024/02/19 06:57:41;;;;;;;24.88;3.50;;;;;;;;;;4995402;28;20070;-77
2024/02/19 07:00:09;;;;;;;22.17;3.25;;;;;;;;;;4995250;28;20354;-79
2024/02/19 07:02:37;;;;;;;18.70;3.40;;;;;;;;;;4995431;28;20045;-79
2024/02/19 07:05:05;;;;;;;15.45;2.88;;;;;;;;;;4995234;28;20050;-81
2024/02/19 07:07:33;;;;;;;23.02;3.65;;;;;;;;;;4994912;28;20043;-78
2024/02/19 07:10:00;;;;;;;28.23;2.83;;;;;;;;;;4994787;28;20363;-78
2024/02/19 07:12:27;;;;;;;21.38;3.20;;;;;;;;;;4994466;28;20056;-78
2024/02/19 07:14:55;;;;;;;19.63;2.90;;;;;;;;;;4995152;28;20159;-80
2024/02/19 07:17:22;;;;;;;24.70;3.42;;;;;;;;;;4994765;28;20058;-77
2024/02/19 07:19:50;;;;;;;19.67;2.80;;;;;;;;;;4995253;28;20544;-77
2024/02/19 07:22:17;;;;;;;23.00;2.83;;;;;;;;;;4992911;28;20046;-77
2024/02/19 07:24:44;;;;;;;18.75;3.88;;;;;;;;;;4993192;28;20050;-78
2024/02/19 07:27:11;;;;;;;24.63;3.05;;;;;;;;;;4993240;28;20508;-77
2024/02/19 07:29:37;;;;;;;24.92;3.60;;;;;;;;;;4994474;28;20053;-77
2024/02/19 07:32:04;;;;;;;21.75;2.67;;;;;;;;;;4993211;28;20097;-77
2024/02/19 07:34:31;;;;;;;21.75;3.65;;;;;;;;;;4994497;28;20046;-79
2024/02/19 07:36:58;;;;;;;29.80;4.15;;;;;;;;;;4994128;28;20066;-77
2024/02/19 07:39:24;;;;;;;16.92;2.58;;;;;;;;;;4993453;28;20046;-77
2024/02/19 07:41:51;;;;;;;28.95;3.35;;;;;;;;;;4992653;28;20043;-77
2024/02/19 07:44:18;;;;;;;21.23;3.38;;;;;;;;;;4992850;28;20046;-78
2024/02/19 07:46:45;;;;;;;20.17;2.80;;;;;;;;;;4992884;28;20038;-78
2024/02/19 07:49:11;;;;;;;22.27;3.35;;;;;;;;;;4992530;28;20470;-77
2024/02/19 07:51:38;;;;;;;28.05;4.15;;;;;;;;;;4975391;28;20477;-78
2024/02/19 07:54:05;;;;;;;25.67;3.40;;;;;;;;;;4990997;28;20081;-77
2024/02/19 07:56:32;;;;;;;22.17;2.95;;;;;;;;;;4990463;28;20047;-78
2024/02/19 07:58:59;;;;;;;27.27;4.15;;;;;;;;;;4990356;28;20540;-78
2024/02/19 08:01:25;;;;;;;23.88;3.33;;;;;;;;;;4993382;28;20038;-78
2024/02/19 08:03:52;;;;;;;23.13;3.03;;;;;;;;;;4992889;28;20046;-78
2024/02/19 08:06:19;;;;;;;26.33;3.33;;;;;;;;;;4985193;28;20064;-78
2024/02/19 08:08:46;;;;;;;22.70;3.30;;;;;;;;;;4990457;28;20046;-78
2024/02/19 08:11:13;;;;;;;25.17;2.95;;;;;;;;;;4993344;28;20046;-78
2024/02/19 08:13:43;;;;;;;22.60;3.47;;;;;;;;;;4991968;28;20548;-78
2024/02/19 08:16:10;;;;;;;21.38;2.90;;;;;;;;;;4991402;28;20482;-78
2024/02/19 08:18:37;;;;;;;27.92;3.05;;;;;;;;;;4989955;28;20046;-80
2024/02/19 08:21:04;;;;;;;24.75;3.42;;;;;;;;;;4990657;28;20512;-78
2024/02/19 08:23:31;;;;;;;26.42;3.15;;;;;;;;;;4992581;28;20069;-77
2024/02/19 08:25:59;;;;;;;20.30;2.67;;;;;;;;;;4993504;28;20046;-77
2024/02/19 08:28:26;;;;;;;22.45;4.00;;;;;;;;;;4992236;28;20116;-77
2024/02/19 08:30:53;;;;;;;21.83;2.90;;;;;;;;;;4993494;28;20042;-77
2024/02/19 08:33:19;;;;;;;17.42;2.53;;;;;;;;;;4993122;28;20042;-77
2024/02/19 08:35:46;;;;;;;23.75;3.33;;;;;;;;;;4976614;28;20046;-77
2024/02/19 08:38:13;;;;;;;27.67;3.55;;;;;;;;;;4993154;28;20492;-78
2024/02/19 08:40:40;;;;;;;17.80;3.03;;;;;;;;;;4993665;28;20043;-78
2024/02/19 08:43:10;;;;;;;25.60;2.65;;;;;;;;;;4992806;28;20034;-77
2024/02/19 08:45:39;;;;;;;21.48;2.50;;;;;;;;;;4992500;28;20473;-78
2024/02/19 08:48:07;;;;;;;18.08;2.72;;;;;;;;;;4993169;28;20363;-77
2024/02/19 08:50:34;;;;;;;19.45;2.70;;;;;;;;;;4976789;28;20047;-77
2024/02/19 08:53:01;;;;;;;26.92;3.05;;;;;;;;;;4972980;28;20047;-77
2024/02/19 08:55:28;;;;;;;23.45;2.88;;;;;;;;;;4973803;28;20473;-78
2024/02/19 08:57:55;;;;;;;23.33;3.60;;;;;;;;;;4974208;28;20043;-78
2024/02/19 09:00:21;;;;;;;15.73;2.95;;;;;;;;;;4973444;28;20043;-77
2024/02/19 09:02:48;;;;;;;29.98;3.35;;;;;;;;;;4973973;28;20050;-77
2024/02/19 09:05:19;;;;;;;22.75;2.72;;;;;;;;;;4973651;28;20097;-78
2024/02/19 09:07:47;;;;;;;29.27;4.30;;;;;;;;;;4974024;28;20050;-78
2024/02/19 09:10:14;;;;;;;27.02;3.72;;;;;;;;;;4973168;28;20074;-78
2024/02/19 09:12:41;;;;;;;20.00;3.25;;;;;;;;;;4974107;28;20079;-78
2024/02/19 09:15:08;;;;;;;26.15;3.58;;;;;;;;;;4973510;28;20057;-78
2024/02/19 09:17:35;;;;;;;26.73;4.13;;;;;;;;;;4973767;28;20047;-78
2024/02/19 09:20:04;;;;;;;26.08;2.88;;;;;;;;;;4973834;28;20550;-78
2024/02/19 09:22:32;;;;;;;27.90;4.32;;;;;;;;;;4973665;28;20053;-77
2024/02/19 09:24:59;;;;;;;23.70;4.15;;;;;;;;;;4980102;28;20042;-78
2024/02/19 09:27:26;;;;;;;28.00;3.90;;;;;;;;;;4992779;28;20450;-78
2024/02/19 09:29:53;;;;;;;26.42;3.88;;;;;;;;;;4993091;28;20499;-78
2024/02/19 09:32:19;;;;;;;29.90;4.25;;;;;;;;;;4992536;28;20042;-78
2024/02/19 09:34:46;;;;;;;28.48;3.75;;;;;;;;;;4992973;28;20429;-78
2024/02/19 09:37:14;;;;;;;26.27;3.08;;;;;;;;;;4992727;28;20046;-78
2024/02/19 09:39:40;;;;;;;28.45;4.13;;;;;;;;;;4993730;28;20051;-78
2024/02/19 09:42:08;;;;;;;29.98;4.30;;;;;;;;;;4996391;28;20053;-78
2024/02/19 09:44:35;;;;;;;27.27;3.45;;;;;;;;;;4996781;28;20481;-78
2024/02/19 09:47:03;;;;;;;35.50;4.03;;;;;;;;;;4996412;28;20053;-77
2024/02/19 09:49:31;;;;;;;22.67;3.85;;;;;;;;;;4996486;28;20062;-77
2024/02/19 09:52:02;;;;;;;26.50;3.65;;;;;;;;;;4996577;28;20066;-77
2024/02/19 09:54:29;;;;;;;28.83;4.05;;;;;;;;;;4996427;28;20137;-77
2024/02/19 09:56:56;;;;;;;28.13;3.70;;;;;;;;;;4979275;28;20508;-77
2024/02/19 09:59:23;;;;;;;22.60;3.67;;;;;;;;;;4995993;28;20038;-77
2024/02/19 10:01:51;;;;;;;27.05;3.78;;;;;;;;;;4996359;28;20383;-77
2024/02/19 10:04:20;;;;;;;28.83;4.57;;;;;;;;;;4995860;28;20039;-77
2024/02/19 10:06:47;;;;;;;31.85;4.28;;;;;;;;;;4996384;28;20478;-78
2024/02/19 10:09:15;;;;;;;23.88;3.92;;;;;;;;;;4995538;28;20051;-78
2024/02/19 10:11:42;;;;;;;25.58;3.25;;;;;;;;;;4996125;28;20065;-78
2024/02/19 10:14:10;;;;;;;22.08;3.13;;;;;;;;;;4995768;28;20129;-78
2024/02/19 10:16:37;;;;;;;21.35;2.80;;;;;;;;;;4995209;28;20052;-77
2024/02/19 10:19:07;;;;;;;25.08;2.80;;;;;;;;;;4995489;28;20097;-78
2024/02/19 10:21:35;;;;;;;23.45;2.50;;;;;;;;;;4995963;28;20046;-78
2024/02/19 10:24:02;;;;;;;23.77;3.60;;;;;;;;;;4996164;28;20369;-78
2024/02/19 10:26:28;;;;;;;20.52;3.30;;;;;;;;;;4995577;28;20112;-78
2024/02/19 10:28:57;;;;;;;24.20;2.50;;;;;;;;;;4995975;28;20049;-78
2024/02/19 10:31:25;;;;;;;24.25;3.45;;;;;;;;;;4995463;28;21651;-78
2024/02/19 10:33:52;;;;;;;18.13;2.53;;;;;;;;;;4995682;28;20054;-78
2024/02/19 10:36:22;;;;;;;17.55;2.80;;;;;;;;;;4995202;28;20493;-79
2024/02/19 10:38:49;;;;;;;17.75;2.80;;;;;;;;;;4995836;28;20054;-76
2024/02/19 10:41:17;;;;;;;13.73;2.53;;;;;;;;;;4995264;28;20050;-78
2024/02/19 10:43:47;;;;;;;16.13;2.08;;;;;;;;;;4995596;28;20050;-76
2024/02/19 10:46:19;;;;;;;17.02;2.40;;;;;;;;;;4994967;28;20042;-77
2024/02/19 10:48:54;;;;;;;21.95;2.65;;;;;;;;;;4995489;28;20042;-77
2024/02/19 10:51:23;;;;;;;16.65;2.53;;;;;;;;;;4994323;28;20052;-77
2024/02/19 10:54:00;;;;;;;;;;;;;;;;;;4995918;28;20046;-77
2024/02/19 10:56:35;;;;;;;18.33;2.33;;;;;;;;;;4993535;28;20004;-78
2024/02/19 10:59:02;;;;;;;14.88;2.55;;;;;;;;;;4995492;28;20050;-77
2024/02/19 11:01:48;;;;;;;16.02;2.13;;;;;;;;;;4995196;28;20126;-78
2024/02/19 11:04:15;;;;;;;16.35;2.33;;;;;;;;;;4994678;28;20133;-77
2024/02/19 11:06:57;;;;;;;20.95;3.25;;;;;;;;;;4995419;28;20085;-78
2024/02/19 11:09:31;;;;;;;19.70;3.15;;;;;;;;;;4994407;28;20440;-78
2024/02/19 11:12:00;;;;;;;21.52;3.33;;;;;;;;;;4995098;28;20042;-77
2024/02/19 11:14:28;;;;;;;;;;;;;;;;;;4995231;28;20122;-77
2024/02/19 11:16:56;;;;;;;20.50;2.80;;;;;;;;;;4995170;28;20322;-78
2024/02/19 11:19:24;;;;;;;18.63;2.67;;;;;;;;;;4994450;28;20061;-78
2024/02/19 11:22:01;;;;;;;25.45;3.22;;;;;;;;;;4994959;28;20051;-77
2024/02/19 11:24:29;;;;;;;20.25;3.05;;;;;;;;;;4994365;28;20517;-78
2024/02/19 11:26:56;;;;;;;17.60;2.70;;;;;;;;;;4994808;28;20046;-77
2024/02/19 11:29:24;;;;;;;20.42;3.70;;;;;;;;;;4994593;28;20473;-77
2024/02/19 11:32:04;;;;;;;16.65;2.97;;;;;;;;;;4994618;28;20047;-78
2024/02/19 11:34:31;;;;;;;18.27;3.25;;;;;;;;;;4994302;28;20062;-77
2024/02/19 11:37:03;;;;;;;27.88;2.90;;;;;;;;;;4994618;28;20046;-78
2024/02/19 11:39:33;;;;;;;19.30;2.70;;;;;;;;;;4991602;28;20058;-77
2024/02/19 11:42:04;;;;;;;16.90;2.30;;;;;;;;;;4990031;28;20046;-78
2024/02/19 11:44:32;;;;;;;17.95;2.20;;;;;;;;;;4993058;28;20057;-77
2024/02/19 11:46:59;;;;;;;17.02;2.58;;;;;;;;;;4992760;28;20046;-77
2024/02/19 11:49:27;;;;;;;14.15;2.13;;;;;;;;;;4992550;28;20046;-77
2024/02/19 11:51:54;;;;;;;22.77;3.75;;;;;;;;;;4992531;28;20042;-78
2024/02/19 11:54:36;;;;;;;;;;;;;;;;;;4993037;28;20057;-78
2024/02/19 11:57:05;;;;;;;19.55;2.72;;;;;;;;;;4992495;28;20135;-78
2024/02/19 11:59:32;;;;;;;19.80;2.78;;;;;;;;;;4992480;28;20366;-78
2024/02/19 12:02:02;;;;;;;20.38;2.67;;;;;;;;;;4992539;28;20042;-78
2024/02/19 12:04:33;;;;;;;20.00;2.75;;;;;;;;;;4990400;28;20073;-78
2024/02/19 12:06:59;;;;;;;18.73;2.92;;;;;;;;;;4992720;28;20085;-78
2024/02/19 12:09:27;;;;;;;22.33;3.42;;;;;;;;;;4991876;28;20101;-81
2024/02/19 12:11:53;;;;;;;18.40;2.90;;;;;;;;;;4992704;28;20508;-77
2024/02/19 12:14:20;;;;;;;18.30;2.72;;;;;;;;;;4991991;28;20053;-77
2024/02/19 12:16:47;;;;;;;14.50;2.95;;;;;;;;;;4992384;28;20039;-78
2024/02/19 12:19:13;;;;;;;16.08;1.80;;;;;;;;;;4992756;28;20047;-78
2024/02/19 12:21:42;;;;;;;18.02;2.75;;;;;;;;;;4993780;28;20163;-78
2024/02/19 12:24:10;;;;;;;15.77;2.45;;;;;;;;;;4992428;28;20046;-78
2024/02/19 12:26:38;;;;;;;18.48;2.47;;;;;;;;;;4974569;28;20050;-78
2024/02/19 12:29:05;;;;;;;14.50;2.47;;;;;;;;;;4974099;28;20085;-77
2024/02/19 12:31:31;;;;;;;13.93;2.63;;;;;;;;;;4973363;28;20038;-78
2024/02/19 12:33:58;;;;;;;13.43;2.13;;;;;;;;;;4980511;28;20046;-77
2024/02/19 12:36:25;;;;;;;15.68;2.10;;;;;;;;;;4993244;28;20073;-77
2024/02/19 12:38:52;;;;;;;18.23;2.50;;;;;;;;;;4993575;28;20504;-78
2024/02/19 12:41:19;;;;;;;16.42;2.33;;;;;;;;;;4993232;28;20043;-78
2024/02/19 12:43:46;;;;;;;18.30;2.55;;;;;;;;;;4993665;28;20129;-78
2024/02/19 12:46:14;;;;;;;16.50;2.30;;;;;;;;;;4993102;28;20363;-77
2024/02/19 12:48:42;;;;;;;14.40;2.25;;;;;;;;;;4993665;28;20042;-78
2024/02/19 12:51:11;;;;;;;16.58;2.22;;;;;;;;;;4993021;28;20061;-78
2024/02/19 12:53:38;;;;;;;16.65;2.30;;;;;;;;;;4993561;28;20077;-78
2024/02/19 12:56:05;;;;;;;18.60;2.42;;;;;;;;;;4993039;28;20473;-78
2024/02/19 12:58:33;;;;;;;12.93;1.88;;;;;;;;;;4993568;28;20043;-78
2024/02/19 13:01:00;;;;;;;17.95;2.70;;;;;;;;;;4993433;28;20050;-78
2024/02/19 13:03:39;;;;;;;14.13;2.60;;;;;;;;;;4993269;28;20056;-78
2024/02/19 13:06:10;;;;;;;12.50;2.17;;;;;;;;;;4992968;28;20054;-78
2024/02/19 13:08:38;;;;;;;14.75;2.35;;;;;;;;;;4993370;28;20286;-78
2024/02/19 13:11:05;;;;;;;16.80;2.40;;;;;;;;;;4992427;28;20045;-78
2024/02/19 13:13:31;;;;;;;20.40;2.85;;;;;;;;;;4993232;28;20053;-78
2024/02/19 13:15:58;;;;;;;16.25;2.38;;;;;;;;;;4996454;28;20069;-78
2024/02/19 13:18:25;;;;;;;18.45;2.65;;;;;;;;;;4996916;28;20052;-78
2024/02/19 13:20:52;;;;;;;18.25;2.70;;;;;;;;;;4997068;28;20054;-78
2024/02/19 13:23:23;;;;;;;20.63;2.92;;;;;;;;;;4996762;28;20066;-79
2024/02/19 13:25:49;;;;;;;21.02;2.80;;;;;;;;;;4997056;28;20296;-79
2024/02/19 13:28:16;;;;;;;19.45;2.88;;;;;;;;;;4996698;28;20042;-79
2024/02/19 13:30:43;;;;;;;20.23;2.47;;;;;;;;;;4997033;28;20166;-77
2024/02/19 13:33:10;;;;;;;15.43;3.22;;;;;;;;;;4996551;28;20449;-78
2024/02/19 13:35:37;;;;;;;20.70;2.63;;;;;;;;;;4996836;28;20050;-78
2024/02/19 13:38:05;;;;;;;19.95;2.72;;;;;;;;;;4996557;28;20049;-77
2024/02/19 13:40:32;;;;;;;20.88;2.80;;;;;;;;;;4996746;28;20071;-78
2024/02/19 13:43:00;;;;;;;18.75;2.58;;;;;;;;;;4993844;28;20054;-78
2024/02/19 13:45:51;;;;;;;18.20;3.28;;;;;;;;;;4995301;28;20179;-77
2024/02/19 13:48:21;;;;;;;19.73;3.13;;;;;;;;;;4995180;28;20044;-79
2024/02/19 13:50:48;;;;;;;17.20;3.15;;;;;;;;;;4995912;28;20089;-78
2024/02/19 13:53:14;;;;;;;19.98;2.78;;;;;;;;;;4995296;28;20062;-77
2024/02/19 13:55:42;;;;;;;20.08;2.83;;;;;;;;;;4995834;28;20061;-79
2024/02/19 13:58:09;;;;;;;15.15;2.58;;;;;;;;;;4995227;28;20043;-78
2024/02/19 14:00:35;;;;;;;18.05;2.85;;;;;;;;;;4995906;28;20046;-77
2024/02/19 14:03:02;;;;;;;17.25;2.70;;;;;;;;;;4995452;28;20097;-77
2024/02/19 14:05:31;;;;;;;23.65;2.83;;;;;;;;;;4994448;28;20094;-77
2024/02/19 14:07:57;;;;;;;12.35;2.03;;;;;;;;;;4995574;28;20046;-79
2024/02/19 14:10:24;;;;;;;13.10;2.15;;;;;;;;;;4994740;28;20062;-78
2024/02/19 14:12:51;;;;;;;16.58;2.13;;;;;;;;;;4995444;28;20050;-78
2024/02/19 14:15:17;;;;;;;20.50;2.55;;;;;;;;;;4995334;28;20470;-78
2024/02/19 14:17:44;;;;;;;15.52;2.50;;;;;;;;;;4995274;28;20038;-78
2024/02/19 14:20:11;;;;;;;18.20;2.90;;;;;;;;;;4994909;28;20497;-79
2024/02/19 14:22:38;;;;;;;18.20;2.70;;;;;;;;;;4994987;28;20668;-78
2024/02/19 14:25:09;;;;;;;11.23;2.20;;;;;;;;;;4995032;28;20381;-77
2024/02/19 14:27:39;;;;;;;17.05;2.63;;;;;;;;;;4994226;28;20042;-78
2024/02/19 14:30:08;;;;;;;12.25;2.40;;;;;;;;;;4994959;28;20046;-77
2024/02/19 14:32:35;;;;;;;15.73;2.60;;;;;;;;;;4994966;28;20050;-77